sensor_id;sensor_type;location;lat;lon;timestamp;P1;durP1;ratioP1;P2;durP2;ratioP2
64791;SDS011;51226;47.504;19.074;2022-10-16T00:04:08;10.23;;;8.55;;
64791;SDS011;51226;47.504;19.074;2022-10-16T00:07:12;10.93;;;8.23;;
64791;SDS011;51226;47.504;19.074;2022-10-16T00:10:14;12.90;;;9.00;;
64791;SDS011;51226;47.504;19.074;2022-10-16T00:13:17;9.75;;;8.07;;
64791;SDS011;51226;47.504;19.074;2022-10-16T00:16:22;10.88;;;8.85;;
64791;SDS011;51226;47.504;19.074;2022-10-16T00:19:25;13.62;;;8.85;;
64791;SDS011;51226;47.504;19.074;2022-10-16T00:22:28;12.70;;;9.43;;
64791;SDS011;51226;47.504;19.074;2022-10-16T00:25:31;10.63;;;8.88;;
64791;SDS011;51226;47.504;19.074;2022-10-16T00:28:35;9.95;;;8.38;;
64791;SDS011;51226;47.504;19.074;2022-10-16T00:34:40;9.88;;;8.57;;
64791;SDS011;51226;47.504;19.074;2022-10-16T00:37:43;11.63;;;8.50;;
64791;SDS011;51226;47.504;19.074;2022-10-16T00:40:46;9.25;;;7.60;;
64791;SDS011;51226;47.504;19.074;2022-10-16T00:46:53;12.10;;;7.93;;
64791;SDS011;51226;47.504;19.074;2022-10-16T00:49:58;9.20;;;8.20;;
64791;SDS011;51226;47.504;19.074;2022-10-16T00:53:05;11.23;;;8.15;;
64791;SDS011;51226;47.504;19.074;2022-10-16T00:56:08;11.10;;;9.10;;
64791;SDS011;51226;47.504;19.074;2022-10-16T01:02:27;11.80;;;8.57;;
64791;SDS011;51226;47.504;19.074;2022-10-16T01:12:06;9.80;;;8.23;;
64791;SDS011;51226;47.504;19.074;2022-10-16T01:15:29;14.15;;;9.95;;
64791;SDS011;51226;47.504;19.074;2022-10-16T01:18:43;12.93;;;8.68;;
64791;SDS011;51226;47.504;19.074;2022-10-16T01:21:48;9.57;;;8.50;;
64791;SDS011;51226;47.504;19.074;2022-10-16T01:24:55;9.82;;;8.27;;
64791;SDS011;51226;47.504;19.074;2022-10-16T01:28:02;14.93;;;8.77;;
64791;SDS011;51226;47.504;19.074;2022-10-16T01:31:13;10.15;;;8.07;;
64791;SDS011;51226;47.504;19.074;2022-10-16T01:34:21;11.12;;;8.60;;
64791;SDS011;51226;47.504;19.074;2022-10-16T01:37:35;10.90;;;9.20;;
64791;SDS011;51226;47.504;19.074;2022-10-16T01:40:41;10.70;;;8.05;;
64791;SDS011;51226;47.504;19.074;2022-10-16T01:43:49;10.65;;;8.05;;
64791;SDS011;51226;47.504;19.074;2022-10-16T01:47:13;10.30;;;8.25;;
64791;SDS011;51226;47.504;19.074;2022-10-16T01:50:18;11.63;;;8.05;;
64791;SDS011;51226;47.504;19.074;2022-10-16T01:53:22;10.90;;;7.57;;
64791;SDS011;51226;47.504;19.074;2022-10-16T01:56:27;12.23;;;7.65;;
64791;SDS011;51226;47.504;19.074;2022-10-16T01:59:32;10.23;;;8.10;;
64791;SDS011;51226;47.504;19.074;2022-10-16T02:02:39;9.32;;;7.80;;
64791;SDS011;51226;47.504;19.074;2022-10-16T02:05:55;9.52;;;7.15;;
64791;SDS011;51226;47.504;19.074;2022-10-16T02:09:00;12.23;;;8.38;;
64791;SDS011;51226;47.504;19.074;2022-10-16T02:12:08;8.90;;;7.97;;
64791;SDS011;51226;47.504;19.074;2022-10-16T02:15:14;11.12;;;8.25;;
64791;SDS011;51226;47.504;19.074;2022-10-16T02:18:17;13.45;;;8.93;;
64791;SDS011;51226;47.504;19.074;2022-10-16T02:21:25;11.90;;;9.10;;
64791;SDS011;51226;47.504;19.074;2022-10-16T02:24:43;12.27;;;9.30;;
64791;SDS011;51226;47.504;19.074;2022-10-16T02:31:10;13.20;;;8.77;;
64791;SDS011;51226;47.504;19.074;2022-10-16T02:34:14;10.90;;;8.70;;
64791;SDS011;51226;47.504;19.074;2022-10-16T02:37:20;14.87;;;8.48;;
64791;SDS011;51226;47.504;19.074;2022-10-16T02:40:23;10.60;;;8.30;;
64791;SDS011;51226;47.504;19.074;2022-10-16T02:43:27;10.98;;;7.80;;
64791;SDS011;51226;47.504;19.074;2022-10-16T02:46:30;12.10;;;9.05;;
64791;SDS011;51226;47.504;19.074;2022-10-16T02:49:33;9.02;;;7.97;;
64791;SDS011;51226;47.504;19.074;2022-10-16T02:52:35;13.32;;;7.90;;
64791;SDS011;51226;47.504;19.074;2022-10-16T02:55:38;8.68;;;7.78;;
64791;SDS011;51226;47.504;19.074;2022-10-16T02:58:42;9.70;;;7.50;;
64791;SDS011;51226;47.504;19.074;2022-10-16T03:04:47;8.95;;;7.70;;
64791;SDS011;51226;47.504;19.074;2022-10-16T03:07:50;9.63;;;8.18;;
64791;SDS011;51226;47.504;19.074;2022-10-16T03:10:54;10.00;;;8.38;;
64791;SDS011;51226;47.504;19.074;2022-10-16T03:13:57;11.38;;;7.82;;
64791;SDS011;51226;47.504;19.074;2022-10-16T03:17:00;11.05;;;8.07;;
64791;SDS011;51226;47.504;19.074;2022-10-16T03:20:03;12.43;;;8.48;;
64791;SDS011;51226;47.504;19.074;2022-10-16T03:23:06;10.05;;;8.15;;
64791;SDS011;51226;47.504;19.074;2022-10-16T03:26:11;13.07;;;8.70;;
64791;SDS011;51226;47.504;19.074;2022-10-16T03:29:13;10.77;;;8.40;;
64791;SDS011;51226;47.504;19.074;2022-10-16T03:32:16;9.20;;;8.10;;
64791;SDS011;51226;47.504;19.074;2022-10-16T03:35:20;10.38;;;8.93;;
64791;SDS011;51226;47.504;19.074;2022-10-16T03:38:24;12.50;;;8.57;;
64791;SDS011;51226;47.504;19.074;2022-10-16T03:41:26;12.57;;;8.55;;
64791;SDS011;51226;47.504;19.074;2022-10-16T03:44:29;9.52;;;8.27;;
64791;SDS011;51226;47.504;19.074;2022-10-16T03:47:32;11.25;;;8.40;;
64791;SDS011;51226;47.504;19.074;2022-10-16T03:50:36;11.20;;;7.93;;
64791;SDS011;51226;47.504;19.074;2022-10-16T03:53:38;12.02;;;9.38;;
64791;SDS011;51226;47.504;19.074;2022-10-16T03:56:42;11.27;;;8.65;;
64791;SDS011;51226;47.504;19.074;2022-10-16T03:59:45;11.52;;;9.23;;
64791;SDS011;51226;47.504;19.074;2022-10-16T04:02:48;10.73;;;8.00;;
64791;SDS011;51226;47.504;19.074;2022-10-16T04:05:50;11.65;;;8.32;;
64791;SDS011;51226;47.504;19.074;2022-10-16T04:08:53;9.80;;;8.35;;
64791;SDS011;51226;47.504;19.074;2022-10-16T04:11:56;11.88;;;9.13;;
64791;SDS011;51226;47.504;19.074;2022-10-16T04:14:58;13.95;;;8.55;;
64791;SDS011;51226;47.504;19.074;2022-10-16T04:18:01;10.32;;;8.57;;
64791;SDS011;51226;47.504;19.074;2022-10-16T04:21:06;10.55;;;8.35;;
64791;SDS011;51226;47.504;19.074;2022-10-16T04:24:09;9.23;;;7.75;;
64791;SDS011;51226;47.504;19.074;2022-10-16T04:27:13;10.48;;;8.55;;
64791;SDS011;51226;47.504;19.074;2022-10-16T04:30:16;12.68;;;8.13;;
64791;SDS011;51226;47.504;19.074;2022-10-16T04:33:19;10.45;;;8.73;;
64791;SDS011;51226;47.504;19.074;2022-10-16T04:36:22;9.50;;;8.60;;
64791;SDS011;51226;47.504;19.074;2022-10-16T04:39:29;11.60;;;8.50;;
64791;SDS011;51226;47.504;19.074;2022-10-16T04:42:32;15.95;;;8.60;;
64791;SDS011;51226;47.504;19.074;2022-10-16T04:45:35;14.18;;;8.45;;
64791;SDS011;51226;47.504;19.074;2022-10-16T04:48:37;11.95;;;8.60;;
64791;SDS011;51226;47.504;19.074;2022-10-16T04:51:40;11.70;;;9.02;;
64791;SDS011;51226;47.504;19.074;2022-10-16T04:54:43;12.60;;;8.65;;
64791;SDS011;51226;47.504;19.074;2022-10-16T04:57:47;12.32;;;8.50;;
64791;SDS011;51226;47.504;19.074;2022-10-16T05:00:50;11.48;;;9.00;;
64791;SDS011;51226;47.504;19.074;2022-10-16T05:03:52;11.20;;;9.43;;
64791;SDS011;51226;47.504;19.074;2022-10-16T05:06:55;12.10;;;9.55;;
64791;SDS011;51226;47.504;19.074;2022-10-16T05:09:58;11.95;;;9.43;;
64791;SDS011;51226;47.504;19.074;2022-10-16T05:13:00;10.82;;;9.60;;
64791;SDS011;51226;47.504;19.074;2022-10-16T05:16:03;11.68;;;9.70;;
64791;SDS011;51226;47.504;19.074;2022-10-16T05:19:06;12.75;;;9.50;;
64791;SDS011;51226;47.504;19.074;2022-10-16T05:22:29;11.80;;;9.52;;
64791;SDS011;51226;47.504;19.074;2022-10-16T05:25:31;11.40;;;9.70;;
64791;SDS011;51226;47.504;19.074;2022-10-16T05:28:34;14.05;;;9.93;;
64791;SDS011;51226;47.504;19.074;2022-10-16T05:31:37;10.60;;;9.35;;
64791;SDS011;51226;47.504;19.074;2022-10-16T05:34:40;13.85;;;9.38;;
64791;SDS011;51226;47.504;19.074;2022-10-16T05:37:42;10.75;;;9.60;;
64791;SDS011;51226;47.504;19.074;2022-10-16T05:40:51;11.73;;;9.05;;
64791;SDS011;51226;47.504;19.074;2022-10-16T05:43:57;12.00;;;9.25;;
64791;SDS011;51226;47.504;19.074;2022-10-16T05:46:59;13.82;;;9.57;;
64791;SDS011;51226;47.504;19.074;2022-10-16T05:50:02;11.70;;;10.40;;
64791;SDS011;51226;47.504;19.074;2022-10-16T05:53:06;11.43;;;9.77;;
64791;SDS011;51226;47.504;19.074;2022-10-16T05:56:09;14.07;;;10.15;;
64791;SDS011;51226;47.504;19.074;2022-10-16T05:59:14;11.57;;;10.27;;
64791;SDS011;51226;47.504;19.074;2022-10-16T06:02:16;17.00;;;11.93;;
64791;SDS011;51226;47.504;19.074;2022-10-16T06:05:19;13.00;;;11.05;;
64791;SDS011;51226;47.504;19.074;2022-10-16T06:08:22;15.93;;;11.00;;
64791;SDS011;51226;47.504;19.074;2022-10-16T06:11:26;13.88;;;9.98;;
64791;SDS011;51226;47.504;19.074;2022-10-16T06:14:30;13.30;;;10.20;;
64791;SDS011;51226;47.504;19.074;2022-10-16T06:17:33;10.55;;;9.45;;
64791;SDS011;51226;47.504;19.074;2022-10-16T06:20:36;12.30;;;9.23;;
64791;SDS011;51226;47.504;19.074;2022-10-16T06:23:40;19.55;;;15.07;;
64791;SDS011;51226;47.504;19.074;2022-10-16T06:26:43;12.20;;;9.88;;
64791;SDS011;51226;47.504;19.074;2022-10-16T06:29:46;11.93;;;10.05;;
64791;SDS011;51226;47.504;19.074;2022-10-16T06:32:48;11.67;;;9.33;;
64791;SDS011;51226;47.504;19.074;2022-10-16T06:35:51;11.23;;;9.85;;
64791;SDS011;51226;47.504;19.074;2022-10-16T06:38:54;13.62;;;10.15;;
64791;SDS011;51226;47.504;19.074;2022-10-16T06:41:57;12.60;;;10.05;;
64791;SDS011;51226;47.504;19.074;2022-10-16T06:45:09;13.98;;;9.65;;
64791;SDS011;51226;47.504;19.074;2022-10-16T06:48:12;13.30;;;10.07;;
64791;SDS011;51226;47.504;19.074;2022-10-16T06:51:18;12.10;;;9.65;;
64791;SDS011;51226;47.504;19.074;2022-10-16T06:54:22;13.48;;;9.35;;
64791;SDS011;51226;47.504;19.074;2022-10-16T06:57:25;15.05;;;9.90;;
64791;SDS011;51226;47.504;19.074;2022-10-16T07:00:28;10.82;;;9.55;;
64791;SDS011;51226;47.504;19.074;2022-10-16T07:03:31;14.77;;;10.05;;
64791;SDS011;51226;47.504;19.074;2022-10-16T07:06:34;13.30;;;9.15;;
64791;SDS011;51226;47.504;19.074;2022-10-16T07:09:37;11.02;;;9.52;;
64791;SDS011;51226;47.504;19.074;2022-10-16T07:12:40;15.45;;;10.07;;
64791;SDS011;51226;47.504;19.074;2022-10-16T07:15:43;10.77;;;9.68;;
64791;SDS011;51226;47.504;19.074;2022-10-16T07:18:45;10.32;;;9.05;;
64791;SDS011;51226;47.504;19.074;2022-10-16T07:21:50;12.50;;;10.57;;
64791;SDS011;51226;47.504;19.074;2022-10-16T07:24:53;12.82;;;9.95;;
64791;SDS011;51226;47.504;19.074;2022-10-16T07:27:55;12.32;;;8.93;;
64791;SDS011;51226;47.504;19.074;2022-10-16T07:31:02;11.88;;;9.18;;
64791;SDS011;51226;47.504;19.074;2022-10-16T07:34:09;13.75;;;10.05;;
64791;SDS011;51226;47.504;19.074;2022-10-16T07:37:13;14.18;;;9.77;;
64791;SDS011;51226;47.504;19.074;2022-10-16T07:40:17;13.82;;;10.43;;
64791;SDS011;51226;47.504;19.074;2022-10-16T07:43:20;13.05;;;9.60;;
64791;SDS011;51226;47.504;19.074;2022-10-16T07:46:22;11.45;;;8.23;;
64791;SDS011;51226;47.504;19.074;2022-10-16T07:49:26;9.70;;;8.43;;
64791;SDS011;51226;47.504;19.074;2022-10-16T07:52:28;9.30;;;8.38;;
64791;SDS011;51226;47.504;19.074;2022-10-16T07:55:31;11.02;;;8.63;;
64791;SDS011;51226;47.504;19.074;2022-10-16T08:01:39;9.27;;;7.80;;
64791;SDS011;51226;47.504;19.074;2022-10-16T08:04:46;8.05;;;7.25;;
64791;SDS011;51226;47.504;19.074;2022-10-16T08:07:49;7.93;;;7.07;;
64791;SDS011;51226;47.504;19.074;2022-10-16T08:10:52;7.57;;;6.78;;
64791;SDS011;51226;47.504;19.074;2022-10-16T08:13:55;11.93;;;7.80;;
64791;SDS011;51226;47.504;19.074;2022-10-16T08:16:58;8.60;;;7.75;;
64791;SDS011;51226;47.504;19.074;2022-10-16T08:20:01;9.25;;;7.55;;
64791;SDS011;51226;47.504;19.074;2022-10-16T08:23:04;7.43;;;6.72;;
64791;SDS011;51226;47.504;19.074;2022-10-16T08:26:08;7.93;;;7.12;;
64791;SDS011;51226;47.504;19.074;2022-10-16T08:29:12;8.88;;;7.65;;
64791;SDS011;51226;47.504;19.074;2022-10-16T08:32:16;10.15;;;7.47;;
64791;SDS011;51226;47.504;19.074;2022-10-16T08:35:20;8.90;;;8.02;;
64791;SDS011;51226;47.504;19.074;2022-10-16T08:38:23;8.27;;;7.55;;
64791;SDS011;51226;47.504;19.074;2022-10-16T08:48:52;9.50;;;7.82;;
64791;SDS011;51226;47.504;19.074;2022-10-16T08:51:59;9.15;;;7.68;;
64791;SDS011;51226;47.504;19.074;2022-10-16T08:55:03;9.90;;;7.90;;
64791;SDS011;51226;47.504;19.074;2022-10-16T08:58:16;9.23;;;7.72;;
64791;SDS011;51226;47.504;19.074;2022-10-16T09:01:21;8.73;;;7.97;;
64791;SDS011;51226;47.504;19.074;2022-10-16T09:11:31;10.85;;;7.47;;
64791;SDS011;51226;47.504;19.074;2022-10-16T09:21:13;7.93;;;7.22;;
64791;SDS011;51226;47.504;19.074;2022-10-16T09:24:21;9.07;;;8.15;;
64791;SDS011;51226;47.504;19.074;2022-10-16T09:27:30;8.98;;;8.02;;
64791;SDS011;51226;47.504;19.074;2022-10-16T09:30:33;9.98;;;8.23;;
64791;SDS011;51226;47.504;19.074;2022-10-16T09:33:36;8.60;;;7.53;;
64791;SDS011;51226;47.504;19.074;2022-10-16T09:36:43;9.80;;;7.97;;
64791;SDS011;51226;47.504;19.074;2022-10-16T09:39:49;9.43;;;8.43;;
64791;SDS011;51226;47.504;19.074;2022-10-16T09:42:58;10.23;;;7.90;;
64791;SDS011;51226;47.504;19.074;2022-10-16T09:46:21;11.25;;;7.82;;
64791;SDS011;51226;47.504;19.074;2022-10-16T09:49:25;12.55;;;8.93;;
64791;SDS011;51226;47.504;19.074;2022-10-16T09:52:29;11.38;;;8.23;;
64791;SDS011;51226;47.504;19.074;2022-10-16T09:55:32;10.90;;;7.57;;
64791;SDS011;51226;47.504;19.074;2022-10-16T09:58:35;10.25;;;8.88;;
64791;SDS011;51226;47.504;19.074;2022-10-16T10:01:40;9.85;;;8.90;;
64791;SDS011;51226;47.504;19.074;2022-10-16T10:04:50;9.13;;;8.23;;
64791;SDS011;51226;47.504;19.074;2022-10-16T10:08:00;8.05;;;7.25;;
64791;SDS011;51226;47.504;19.074;2022-10-16T10:11:11;11.85;;;8.80;;
64791;SDS011;51226;47.504;19.074;2022-10-16T10:17:22;10.95;;;7.60;;
64791;SDS011;51226;47.504;19.074;2022-10-16T10:20:30;11.12;;;8.27;;
64791;SDS011;51226;47.504;19.074;2022-10-16T10:23:36;10.50;;;7.55;;
64791;SDS011;51226;47.504;19.074;2022-10-16T10:27:13;12.73;;;7.82;;
64791;SDS011;51226;47.504;19.074;2022-10-16T10:36:38;8.38;;;7.32;;
64791;SDS011;51226;47.504;19.074;2022-10-16T10:39:43;10.15;;;7.00;;
64791;SDS011;51226;47.504;19.074;2022-10-16T10:46:48;7.55;;;6.68;;
64791;SDS011;51226;47.504;19.074;2022-10-16T11:00:19;7.82;;;6.22;;
64791;SDS011;51226;47.504;19.074;2022-10-16T11:06:50;7.15;;;6.45;;
64791;SDS011;51226;47.504;19.074;2022-10-16T11:09:58;7.10;;;6.40;;
64791;SDS011;51226;47.504;19.074;2022-10-16T11:16:23;8.65;;;7.00;;
64791;SDS011;51226;47.504;19.074;2022-10-16T11:19:39;7.93;;;6.20;;
64791;SDS011;51226;47.504;19.074;2022-10-16T11:22:50;8.30;;;6.43;;
64791;SDS011;51226;47.504;19.074;2022-10-16T11:26:02;8.60;;;6.28;;
64791;SDS011;51226;47.504;19.074;2022-10-16T11:29:13;10.50;;;6.07;;
64791;SDS011;51226;47.504;19.074;2022-10-16T11:32:31;6.50;;;5.90;;
64791;SDS011;51226;47.504;19.074;2022-10-16T11:35:39;6.53;;;5.65;;
64791;SDS011;51226;47.504;19.074;2022-10-16T11:39:09;6.97;;;6.28;;
64791;SDS011;51226;47.504;19.074;2022-10-16T11:42:18;8.00;;;6.03;;
64791;SDS011;51226;47.504;19.074;2022-10-16T11:45:45;7.15;;;6.03;;
64791;SDS011;51226;47.504;19.074;2022-10-16T11:52:30;9.85;;;6.28;;
64791;SDS011;51226;47.504;19.074;2022-10-16T11:55:43;7.93;;;6.28;;
64791;SDS011;51226;47.504;19.074;2022-10-16T11:59:08;8.60;;;6.10;;
64791;SDS011;51226;47.504;19.074;2022-10-16T12:09:22;8.07;;;6.18;;
64791;SDS011;51226;47.504;19.074;2022-10-16T12:15:38;6.93;;;5.70;;
64791;SDS011;51226;47.504;19.074;2022-10-16T12:19:18;6.10;;;5.10;;
64791;SDS011;51226;47.504;19.074;2022-10-16T12:22:21;6.68;;;4.72;;
64791;SDS011;51226;47.504;19.074;2022-10-16T12:31:37;6.90;;;5.05;;
64791;SDS011;51226;47.504;19.074;2022-10-16T12:35:02;7.22;;;5.70;;
64791;SDS011;51226;47.504;19.074;2022-10-16T12:38:14;7.68;;;5.05;;
64791;SDS011;51226;47.504;19.074;2022-10-16T12:44:42;6.20;;;5.28;;
64791;SDS011;51226;47.504;19.074;2022-10-16T12:50:52;6.25;;;5.32;;
64791;SDS011;51226;47.504;19.074;2022-10-16T13:00:48;7.47;;;5.15;;
64791;SDS011;51226;47.504;19.074;2022-10-16T13:10:39;7.70;;;5.07;;
64791;SDS011;51226;47.504;19.074;2022-10-16T13:30:29;6.20;;;5.43;;
64791;SDS011;51226;47.504;19.074;2022-10-16T13:33:37;5.35;;;4.90;;
64791;SDS011;51226;47.504;19.074;2022-10-16T13:36:44;6.97;;;4.65;;
64791;SDS011;51226;47.504;19.074;2022-10-16T13:39:48;5.47;;;4.47;;
64791;SDS011;51226;47.504;19.074;2022-10-16T13:42:53;7.45;;;5.40;;
64791;SDS011;51226;47.504;19.074;2022-10-16T13:46:00;7.22;;;4.87;;
64791;SDS011;51226;47.504;19.074;2022-10-16T13:49:14;5.87;;;4.87;;
64791;SDS011;51226;47.504;19.074;2022-10-16T13:52:19;7.40;;;5.07;;
64791;SDS011;51226;47.504;19.074;2022-10-16T13:55:23;7.70;;;5.18;;
64791;SDS011;51226;47.504;19.074;2022-10-16T13:58:26;6.57;;;4.72;;
64791;SDS011;51226;47.504;19.074;2022-10-16T14:01:30;5.80;;;5.12;;
64791;SDS011;51226;47.504;19.074;2022-10-16T14:04:38;5.10;;;4.60;;
64791;SDS011;51226;47.504;19.074;2022-10-16T14:07:41;6.22;;;4.50;;
64791;SDS011;51226;47.504;19.074;2022-10-16T14:10:49;8.05;;;5.07;;
64791;SDS011;51226;47.504;19.074;2022-10-16T14:13:54;6.80;;;4.75;;
64791;SDS011;51226;47.504;19.074;2022-10-16T14:16:58;6.50;;;5.55;;
64791;SDS011;51226;47.504;19.074;2022-10-16T14:20:02;6.15;;;5.03;;
64791;SDS011;51226;47.504;19.074;2022-10-16T14:26:51;6.30;;;5.07;;
64791;SDS011;51226;47.504;19.074;2022-10-16T14:30:10;9.77;;;5.05;;
64791;SDS011;51226;47.504;19.074;2022-10-16T14:33:48;6.50;;;5.07;;
64791;SDS011;51226;47.504;19.074;2022-10-16T14:36:43;5.72;;;5.15;;
64791;SDS011;51226;47.504;19.074;2022-10-16T14:39:49;7.70;;;5.72;;
64791;SDS011;51226;47.504;19.074;2022-10-16T14:42:55;7.20;;;4.95;;
64791;SDS011;51226;47.504;19.074;2022-10-16T14:45:59;5.78;;;5.03;;
64791;SDS011;51226;47.504;19.074;2022-10-16T14:49:11;6.35;;;5.05;;
64791;SDS011;51226;47.504;19.074;2022-10-16T14:52:19;6.30;;;4.70;;
64791;SDS011;51226;47.504;19.074;2022-10-16T14:55:22;7.07;;;5.20;;
64791;SDS011;51226;47.504;19.074;2022-10-16T14:58:30;5.72;;;4.82;;
64791;SDS011;51226;47.504;19.074;2022-10-16T15:01:33;5.70;;;5.07;;
64791;SDS011;51226;47.504;19.074;2022-10-16T15:04:36;9.70;;;5.78;;
64791;SDS011;51226;47.504;19.074;2022-10-16T15:07:38;7.80;;;5.53;;
64791;SDS011;51226;47.504;19.074;2022-10-16T15:13:45;5.82;;;5.22;;
64791;SDS011;51226;47.504;19.074;2022-10-16T15:16:49;7.80;;;5.97;;
64791;SDS011;51226;47.504;19.074;2022-10-16T15:19:52;7.82;;;5.60;;
64791;SDS011;51226;47.504;19.074;2022-10-16T15:22:55;7.72;;;5.47;;
64791;SDS011;51226;47.504;19.074;2022-10-16T15:25:58;8.23;;;5.70;;
64791;SDS011;51226;47.504;19.074;2022-10-16T15:29:01;5.40;;;4.90;;
64791;SDS011;51226;47.504;19.074;2022-10-16T15:35:08;8.07;;;5.55;;
64791;SDS011;51226;47.504;19.074;2022-10-16T15:38:12;6.18;;;5.28;;
64791;SDS011;51226;47.504;19.074;2022-10-16T15:41:16;5.72;;;5.22;;
64791;SDS011;51226;47.504;19.074;2022-10-16T15:44:19;6.50;;;5.37;;
64791;SDS011;51226;47.504;19.074;2022-10-16T15:47:25;6.22;;;5.53;;
64791;SDS011;51226;47.504;19.074;2022-10-16T15:50:28;5.80;;;5.20;;
64791;SDS011;51226;47.504;19.074;2022-10-16T15:53:32;6.70;;;5.95;;
64791;SDS011;51226;47.504;19.074;2022-10-16T15:56:36;7.18;;;5.37;;
64791;SDS011;51226;47.504;19.074;2022-10-16T15:59:39;6.03;;;5.20;;
64791;SDS011;51226;47.504;19.074;2022-10-16T16:02:42;8.70;;;5.62;;
64791;SDS011;51226;47.504;19.074;2022-10-16T16:05:46;8.77;;;5.68;;
64791;SDS011;51226;47.504;19.074;2022-10-16T16:08:49;7.12;;;5.75;;
64791;SDS011;51226;47.504;19.074;2022-10-16T16:11:52;6.75;;;6.12;;
64791;SDS011;51226;47.504;19.074;2022-10-16T16:15:06;8.27;;;6.82;;
64791;SDS011;51226;47.504;19.074;2022-10-16T16:18:11;10.52;;;6.60;;
64791;SDS011;51226;47.504;19.074;2022-10-16T16:21:14;8.57;;;6.50;;
64791;SDS011;51226;47.504;19.074;2022-10-16T16:24:17;12.05;;;7.35;;
64791;SDS011;51226;47.504;19.074;2022-10-16T16:27:21;13.30;;;6.97;;
64791;SDS011;51226;47.504;19.074;2022-10-16T16:33:29;10.10;;;6.82;;
64791;SDS011;51226;47.504;19.074;2022-10-16T16:36:34;12.15;;;6.95;;
64791;SDS011;51226;47.504;19.074;2022-10-16T16:39:37;10.50;;;8.23;;
64791;SDS011;51226;47.504;19.074;2022-10-16T16:45:42;9.15;;;7.72;;
64791;SDS011;51226;47.504;19.074;2022-10-16T16:51:47;8.27;;;7.20;;
64791;SDS011;51226;47.504;19.074;2022-10-16T16:57:55;19.02;;;10.25;;
64791;SDS011;51226;47.504;19.074;2022-10-16T17:00:59;15.23;;;9.30;;
64791;SDS011;51226;47.504;19.074;2022-10-16T17:04:21;13.85;;;8.70;;
64791;SDS011;51226;47.504;19.074;2022-10-16T17:07:24;12.85;;;9.50;;
64791;SDS011;51226;47.504;19.074;2022-10-16T17:10:29;10.48;;;8.63;;
64791;SDS011;51226;47.504;19.074;2022-10-16T17:16:39;17.15;;;10.13;;
64791;SDS011;51226;47.504;19.074;2022-10-16T17:19:46;13.60;;;10.07;;
64791;SDS011;51226;47.504;19.074;2022-10-16T17:22:51;21.50;;;12.57;;
64791;SDS011;51226;47.504;19.074;2022-10-16T17:25:54;14.30;;;10.40;;
64791;SDS011;51226;47.504;19.074;2022-10-16T17:28:58;15.55;;;9.70;;
64791;SDS011;51226;47.504;19.074;2022-10-16T17:32:02;15.98;;;9.85;;
64791;SDS011;51226;47.504;19.074;2022-10-16T17:35:05;11.50;;;9.00;;
64791;SDS011;51226;47.504;19.074;2022-10-16T17:41:11;13.87;;;9.33;;
64791;SDS011;51226;47.504;19.074;2022-10-16T17:44:19;12.95;;;9.35;;
64791;SDS011;51226;47.504;19.074;2022-10-16T17:47:21;12.02;;;9.25;;
64791;SDS011;51226;47.504;19.074;2022-10-16T17:50:24;13.48;;;9.85;;
64791;SDS011;51226;47.504;19.074;2022-10-16T17:53:26;14.40;;;10.43;;
64791;SDS011;51226;47.504;19.074;2022-10-16T17:56:30;14.35;;;10.82;;
64791;SDS011;51226;47.504;19.074;2022-10-16T17:59:32;11.23;;;9.55;;
64791;SDS011;51226;47.504;19.074;2022-10-16T18:02:35;12.13;;;10.43;;
64791;SDS011;51226;47.504;19.074;2022-10-16T18:05:39;13.52;;;10.40;;
64791;SDS011;51226;47.504;19.074;2022-10-16T18:08:41;11.02;;;9.52;;
64791;SDS011;51226;47.504;19.074;2022-10-16T18:11:44;11.80;;;9.55;;
64791;SDS011;51226;47.504;19.074;2022-10-16T18:14:48;12.25;;;9.80;;
64791;SDS011;51226;47.504;19.074;2022-10-16T18:17:51;13.85;;;10.32;;
64791;SDS011;51226;47.504;19.074;2022-10-16T18:21:00;13.18;;;9.80;;
64791;SDS011;51226;47.504;19.074;2022-10-16T18:24:05;12.98;;;9.98;;
64791;SDS011;51226;47.504;19.074;2022-10-16T18:27:08;13.18;;;9.95;;
64791;SDS011;51226;47.504;19.074;2022-10-16T18:30:11;12.05;;;9.15;;
64791;SDS011;51226;47.504;19.074;2022-10-16T18:33:15;17.87;;;9.73;;
64791;SDS011;51226;47.504;19.074;2022-10-16T18:36:19;10.48;;;9.25;;
64791;SDS011;51226;47.504;19.074;2022-10-16T18:39:24;13.38;;;10.50;;
64791;SDS011;51226;47.504;19.074;2022-10-16T18:42:26;12.88;;;10.50;;
64791;SDS011;51226;47.504;19.074;2022-10-16T18:45:29;12.88;;;9.88;;
64791;SDS011;51226;47.504;19.074;2022-10-16T18:48:32;12.43;;;9.77;;
64791;SDS011;51226;47.504;19.074;2022-10-16T18:51:36;13.73;;;9.68;;
64791;SDS011;51226;47.504;19.074;2022-10-16T18:54:42;15.18;;;10.32;;
64791;SDS011;51226;47.504;19.074;2022-10-16T18:57:45;13.95;;;10.40;;
64791;SDS011;51226;47.504;19.074;2022-10-16T19:00:48;14.32;;;10.27;;
64791;SDS011;51226;47.504;19.074;2022-10-16T19:03:57;12.52;;;10.77;;
64791;SDS011;51226;47.504;19.074;2022-10-16T19:07:02;16.50;;;11.02;;
64791;SDS011;51226;47.504;19.074;2022-10-16T19:10:05;15.85;;;11.12;;
64791;SDS011;51226;47.504;19.074;2022-10-16T19:13:08;14.02;;;11.43;;
64791;SDS011;51226;47.504;19.074;2022-10-16T19:16:13;14.70;;;11.32;;
64791;SDS011;51226;47.504;19.074;2022-10-16T19:19:23;17.48;;;12.70;;
64791;SDS011;51226;47.504;19.074;2022-10-16T19:22:27;16.42;;;11.35;;
64791;SDS011;51226;47.504;19.074;2022-10-16T19:25:35;15.80;;;11.85;;
64791;SDS011;51226;47.504;19.074;2022-10-16T19:28:39;14.70;;;11.00;;
64791;SDS011;51226;47.504;19.074;2022-10-16T19:31:43;14.77;;;11.88;;
64791;SDS011;51226;47.504;19.074;2022-10-16T19:34:48;16.00;;;11.00;;
64791;SDS011;51226;47.504;19.074;2022-10-16T19:37:55;13.70;;;11.10;;
64791;SDS011;51226;47.504;19.074;2022-10-16T19:44:15;24.83;;;16.87;;
64791;SDS011;51226;47.504;19.074;2022-10-16T19:47:19;19.15;;;15.10;;
64791;SDS011;51226;47.504;19.074;2022-10-16T19:50:24;23.20;;;18.10;;
64791;SDS011;51226;47.504;19.074;2022-10-16T19:53:27;19.12;;;13.68;;
64791;SDS011;51226;47.504;19.074;2022-10-16T19:56:31;20.75;;;13.50;;
64791;SDS011;51226;47.504;19.074;2022-10-16T19:59:34;20.80;;;14.00;;
64791;SDS011;51226;47.504;19.074;2022-10-16T20:02:37;20.95;;;13.55;;
64791;SDS011;51226;47.504;19.074;2022-10-16T20:05:50;18.77;;;14.02;;
64791;SDS011;51226;47.504;19.074;2022-10-16T20:08:54;17.85;;;14.38;;
64791;SDS011;51226;47.504;19.074;2022-10-16T20:12:00;19.75;;;14.93;;
64791;SDS011;51226;47.504;19.074;2022-10-16T20:15:04;16.62;;;14.18;;
64791;SDS011;51226;47.504;19.074;2022-10-16T20:18:07;17.83;;;14.60;;
64791;SDS011;51226;47.504;19.074;2022-10-16T20:21:10;16.83;;;15.02;;
64791;SDS011;51226;47.504;19.074;2022-10-16T20:24:15;19.87;;;14.35;;
64791;SDS011;51226;47.504;19.074;2022-10-16T20:27:18;15.77;;;14.02;;
64791;SDS011;51226;47.504;19.074;2022-10-16T20:30:21;17.80;;;14.57;;
64791;SDS011;51226;47.504;19.074;2022-10-16T20:33:24;19.73;;;14.95;;
64791;SDS011;51226;47.504;19.074;2022-10-16T20:39:31;16.77;;;13.27;;
64791;SDS011;51226;47.504;19.074;2022-10-16T20:45:36;25.48;;;14.38;;
64791;SDS011;51226;47.504;19.074;2022-10-16T20:48:40;17.87;;;13.98;;
64791;SDS011;51226;47.504;19.074;2022-10-16T20:51:46;15.95;;;12.55;;
64791;SDS011;51226;47.504;19.074;2022-10-16T20:54:51;15.77;;;13.45;;
64791;SDS011;51226;47.504;19.074;2022-10-16T20:57:53;18.87;;;13.60;;
64791;SDS011;51226;47.504;19.074;2022-10-16T21:01:03;17.45;;;13.15;;